createdAt,value
2023-09-09T00:00:02.678Z,101454.20
2023-09-09T00:02:30.767Z,101455.80
2023-09-09T00:04:58.963Z,101457.20
2023-09-09T00:07:27.086Z,101454.20
2023-09-09T00:09:55.254Z,101454.00
2023-09-09T00:12:23.180Z,101454.40
2023-09-09T00:14:51.072Z,101450.60
2023-09-09T00:17:19.406Z,101452.60
2023-09-09T00:19:47.496Z,101453.20
2023-09-09T00:22:29.241Z,101451.00
2023-09-09T00:24:59.171Z,101451.00
2023-09-09T00:27:27.994Z,101447.40
2023-09-09T00:29:56.053Z,101452.60
2023-09-09T00:32:24.607Z,101452.20
2023-09-09T00:34:56.190Z,101450.40
2023-09-09T00:37:24.207Z,101456.20
2023-09-09T00:39:53.552Z,101455.00
2023-09-09T00:42:21.453Z,101454.40
2023-09-09T00:44:49.329Z,101456.80
2023-09-09T00:47:19.367Z,101457.00
2023-09-09T00:49:47.657Z,101453.40
2023-09-09T00:52:15.637Z,101452.00
2023-09-09T00:54:43.807Z,101455.20
2023-09-09T00:57:13.977Z,101454.20
2023-09-09T00:59:41.962Z,101462.00
2023-09-09T01:02:10.109Z,101456.80
2023-09-09T01:04:38.125Z,101457.20
2023-09-09T01:07:06.330Z,101454.60
2023-09-09T01:09:35.382Z,101454.40
2023-09-09T01:12:04.954Z,101456.00
2023-09-09T01:14:35.019Z,101453.00
2023-09-09T01:17:04.084Z,101447.40
2023-09-09T01:19:32.769Z,101457.20
2023-09-09T01:22:03.781Z,101459.00
2023-09-09T01:24:32.181Z,101464.20
2023-09-09T01:27:00.090Z,101472.40
2023-09-09T01:29:28.048Z,101471.40
2023-09-09T01:31:55.957Z,101471.00
2023-09-09T01:34:23.903Z,101470.00
2023-09-09T01:36:51.917Z,101470.60
2023-09-09T01:39:19.766Z,101469.80
2023-09-09T01:41:47.813Z,101468.20
2023-09-09T01:44:15.751Z,101466.00
2023-09-09T01:46:43.602Z,101468.60
2023-09-09T01:49:11.696Z,101468.40
2023-09-09T01:51:39.827Z,101462.60
2023-09-09T01:54:07.724Z,101467.80
2023-09-09T01:56:35.549Z,101471.20
2023-09-09T01:59:03.442Z,101471.20
2023-09-09T02:01:31.910Z,101469.20
2023-09-09T02:04:00.166Z,101468.00
2023-09-09T02:06:29.791Z,101460.80
2023-09-09T02:08:57.931Z,101464.20
2023-09-09T02:11:27.149Z,101462.80
2023-09-09T02:13:55.241Z,101460.20
2023-09-09T02:16:23.629Z,101458.20
2023-09-09T02:18:51.637Z,101458.40
2023-09-09T02:21:19.743Z,101458.80
2023-09-09T02:23:47.798Z,101459.80
2023-09-09T02:26:15.710Z,101455.00
2023-09-09T02:28:47.267Z,101453.40
2023-09-09T02:31:15.215Z,101449.40
2023-09-09T02:33:43.351Z,101449.60
2023-09-09T02:36:11.447Z,101448.40
2023-09-09T02:38:39.437Z,101450.00
2023-09-09T02:41:07.311Z,101452.80
2023-09-09T02:43:35.478Z,101451.60
2023-09-09T02:46:05.549Z,101449.00
2023-09-09T02:48:33.586Z,101447.60
2023-09-09T02:51:01.570Z,101442.60
2023-09-09T02:53:31.316Z,101446.80
2023-09-09T02:55:59.214Z,101445.80
2023-09-09T02:58:27.132Z,101447.40
2023-09-09T03:00:55.102Z,101442.20
2023-09-09T03:03:23.124Z,101440.20
2023-09-09T03:05:51.318Z,101437.40
2023-09-09T03:08:19.142Z,101435.80
2023-09-09T03:10:47.317Z,101435.80
2023-09-09T03:13:15.224Z,101442.40
2023-09-09T03:15:43.132Z,101449.60
2023-09-09T03:18:11.044Z,101451.40
2023-09-09T03:20:39.175Z,101450.80
2023-09-09T03:23:08.348Z,101447.80
2023-09-09T03:25:36.213Z,101444.60
2023-09-09T03:28:04.507Z,101446.40
2023-09-09T03:30:54.798Z,101447.60
2023-09-09T03:33:23.046Z,101448.40
2023-09-09T03:35:51.312Z,101446.40
2023-09-09T03:38:19.441Z,101447.20
2023-09-09T03:40:47.337Z,101442.60
2023-09-09T03:43:16.134Z,101448.60
2023-09-09T03:45:44.116Z,101447.80
2023-09-09T03:48:12.061Z,101445.40
2023-09-09T03:50:39.916Z,101445.40
2023-09-09T03:53:07.910Z,101441.80
2023-09-09T03:55:35.956Z,101442.60
2023-09-09T03:58:04.209Z,101445.20
2023-09-09T04:00:32.176Z,101444.60
2023-09-09T04:03:00.323Z,101445.60
2023-09-09T04:05:28.735Z,101442.60
2023-09-09T04:07:59.543Z,101450.80
2023-09-09T04:10:28.124Z,101446.20
2023-09-09T04:12:56.194Z,101443.60
2023-09-09T04:15:24.031Z,101446.00
2023-09-09T04:17:51.946Z,101449.40
2023-09-09T04:20:20.223Z,101443.40
2023-09-09T04:22:48.125Z,101440.80
2023-09-09T04:25:16.044Z,101439.20
2023-09-09T04:27:43.916Z,101437.20
2023-09-09T04:30:12.799Z,101435.60
2023-09-09T04:32:40.648Z,101437.80
2023-09-09T04:35:08.774Z,101434.20
2023-09-09T04:37:37.248Z,101436.20
2023-09-09T04:40:06.530Z,101431.60
2023-09-09T04:42:34.460Z,101430.20
2023-09-09T04:45:04.784Z,101430.80
2023-09-09T04:47:32.777Z,101429.00
2023-09-09T04:50:00.732Z,101421.00
2023-09-09T04:52:28.766Z,101425.80
2023-09-09T04:54:56.626Z,101426.40
2023-09-09T04:57:24.604Z,101428.00
2023-09-09T04:59:52.510Z,101423.20
2023-09-09T05:02:20.487Z,101429.60
2023-09-09T05:04:48.363Z,101429.20
2023-09-09T05:07:18.293Z,101430.80
2023-09-09T05:12:37.321Z,101431.20
2023-09-09T05:15:11.596Z,101430.60
2023-09-09T05:17:39.491Z,101433.40
2023-09-09T05:20:08.316Z,101426.80
2023-09-09T05:22:36.220Z,101426.80
2023-09-09T05:25:04.663Z,101423.20
2023-09-09T05:27:32.551Z,101422.00
2023-09-09T05:30:00.399Z,101423.00
2023-09-09T05:32:28.297Z,101424.20
2023-09-09T05:34:56.222Z,101419.00
2023-09-09T05:37:27.917Z,101422.80
2023-09-09T05:39:55.950Z,101418.20
2023-09-09T05:42:24.507Z,101419.40
2023-09-09T05:44:52.465Z,101419.40
2023-09-09T05:47:20.333Z,101423.60
2023-09-09T05:49:48.379Z,101419.20
2023-09-09T05:52:16.858Z,101413.40
2023-09-09T05:54:45.223Z,101408.60
2023-09-09T05:57:13.419Z,101408.80
2023-09-09T05:59:41.631Z,101410.20
2023-09-09T06:02:09.879Z,101407.20
2023-09-09T06:04:38.143Z,101400.40
2023-09-09T06:07:06.432Z,101400.40
2023-09-09T06:09:34.374Z,101402.00
2023-09-09T06:12:03.516Z,101405.40
2023-09-09T06:14:31.591Z,101407.80
2023-09-09T06:16:59.570Z,101409.80
2023-09-09T06:19:27.557Z,101404.00
2023-09-09T06:21:55.420Z,101407.00
2023-09-09T06:24:23.263Z,101407.20
2023-09-09T06:26:51.277Z,101412.40
2023-09-09T06:29:19.294Z,101415.00
2023-09-09T06:31:47.447Z,101416.40
2023-09-09T06:34:15.564Z,101416.00
2023-09-09T06:36:43.536Z,101418.80
2023-09-09T06:39:11.518Z,101414.80
2023-09-09T06:41:39.525Z,101416.80
2023-09-09T06:44:07.715Z,101423.60
2023-09-09T06:46:35.725Z,101427.00
2023-09-09T06:49:04.800Z,101422.00
2023-09-09T06:51:32.627Z,101418.80
2023-09-09T06:54:00.484Z,101415.60
2023-09-09T06:56:28.472Z,101418.60
2023-09-09T06:58:57.876Z,101418.60
2023-09-09T07:01:25.780Z,101421.40
2023-09-09T07:03:53.676Z,101423.20
2023-09-09T07:06:21.633Z,101423.20
2023-09-09T07:08:50.862Z,101418.20
2023-09-09T07:11:18.850Z,101416.60
2023-09-09T07:13:46.805Z,101424.80
2023-09-09T07:16:14.696Z,101418.60
2023-09-09T07:18:42.670Z,101415.80
2023-09-09T07:21:10.708Z,101408.60
2023-09-09T07:23:38.876Z,101404.40
2023-09-09T07:26:07.528Z,101399.60
2023-09-09T07:28:35.646Z,101400.40
2023-09-09T07:31:05.500Z,101404.80
2023-09-09T07:33:33.798Z,101405.00
2023-09-09T07:36:01.688Z,101408.20
2023-09-09T07:38:29.724Z,101398.40
2023-09-09T07:41:01.668Z,101404.60
2023-09-09T07:43:29.738Z,101402.80
2023-09-09T07:45:57.786Z,101401.80
2023-09-09T07:48:27.029Z,101399.20
2023-09-09T07:50:57.096Z,101399.00
2023-09-09T07:53:25.185Z,101397.60
2023-09-09T07:55:53.155Z,101403.60
2023-09-09T07:58:21.096Z,101406.80
2023-09-09T08:01:00.406Z,101409.20
2023-09-09T08:03:28.536Z,101412.60
2023-09-09T08:05:57.443Z,101413.60
2023-09-09T08:08:25.612Z,101415.60
2023-09-09T08:10:53.625Z,101419.80
2023-09-09T08:13:21.901Z,101420.60
2023-09-09T08:15:50.137Z,101426.80
2023-09-09T08:18:18.367Z,101429.40
2023-09-09T08:20:51.444Z,101427.40
2023-09-09T08:23:20.251Z,101426.00
2023-09-09T08:25:48.267Z,101428.20
2023-09-09T08:28:18.535Z,101429.80
2023-09-09T08:30:48.437Z,101426.00
2023-09-09T08:33:16.616Z,101424.40
2023-09-09T08:35:44.778Z,101426.00
2023-09-09T08:38:12.755Z,101428.20
2023-09-09T08:40:55.631Z,101428.40
2023-09-09T08:43:41.892Z,101426.80
2023-09-09T08:46:22.210Z,101423.40
2023-09-09T08:48:52.260Z,101426.80
2023-09-09T08:51:30.410Z,101423.20
2023-09-09T08:53:59.004Z,101422.80
2023-09-09T08:56:28.079Z,101426.20
2023-09-09T08:58:57.479Z,101429.40
2023-09-09T09:01:28.157Z,101426.20
2023-09-09T09:03:57.552Z,101424.80
2023-09-09T09:06:27.742Z,101424.40
2023-09-09T09:08:55.865Z,101419.40
2023-09-09T09:11:24.412Z,101413.60
2023-09-09T09:13:53.006Z,101414.00
2023-09-09T09:16:20.991Z,101415.00
2023-09-09T09:18:49.224Z,101417.80
2023-09-09T09:21:17.156Z,101425.40
2023-09-09T09:23:46.954Z,101425.00
2023-09-09T09:26:29.335Z,101425.20
2023-09-09T09:29:03.060Z,101418.40
2023-09-09T09:31:31.411Z,101421.80
2023-09-09T09:34:01.074Z,101423.00
2023-09-09T09:36:29.327Z,101418.40
2023-09-09T09:38:59.759Z,101423.20
2023-09-09T09:41:30.821Z,101420.20
2023-09-09T09:43:58.852Z,101419.80
2023-09-09T09:46:26.897Z,101416.20
2023-09-09T09:48:54.851Z,101417.40
2023-09-09T09:51:22.758Z,101415.20
2023-09-09T09:53:50.640Z,101420.40
2023-09-09T09:56:21.187Z,101419.40
2023-09-09T09:58:51.723Z,101417.60
2023-09-09T10:01:19.743Z,101412.80
2023-09-09T10:03:59.843Z,101413.60
2023-09-09T10:06:30.349Z,101413.80
2023-09-09T10:09:13.091Z,101409.40
2023-09-09T10:11:53.401Z,101413.20
2023-09-09T10:14:26.450Z,101406.60
2023-09-09T10:16:55.035Z,101408.80
2023-09-09T10:19:24.811Z,101408.60
2023-09-09T10:21:56.472Z,101408.40
2023-09-09T10:24:25.794Z,101409.20
2023-09-09T10:26:55.572Z,101410.60
2023-09-09T10:29:25.154Z,101408.20
2023-09-09T10:31:54.175Z,101407.80
2023-09-09T10:34:24.028Z,101407.40
2023-09-09T10:37:01.894Z,101398.60
2023-09-09T10:39:32.969Z,101402.40
2023-09-09T10:42:02.307Z,101403.60
2023-09-09T10:44:30.353Z,101404.20
2023-09-09T10:46:59.295Z,101406.60
2023-09-09T10:49:31.981Z,101403.80
2023-09-09T10:52:00.381Z,101406.40
2023-09-09T10:54:28.481Z,101414.00
2023-09-09T10:57:03.837Z,101407.40
2023-09-09T10:59:33.840Z,101406.80
2023-09-09T11:02:23.375Z,101404.40
2023-09-09T11:05:12.455Z,101408.80
2023-09-09T11:07:43.378Z,101406.20
2023-09-09T11:10:17.553Z,101410.80
2023-09-09T11:13:00.231Z,101403.20
2023-09-09T11:15:28.515Z,101409.00
2023-09-09T11:17:57.091Z,101405.20
2023-09-09T11:20:25.624Z,101401.60
2023-09-09T11:22:54.057Z,101403.00
2023-09-09T11:25:22.411Z,101400.60
2023-09-09T11:27:52.081Z,101403.40
2023-09-09T11:30:20.541Z,101410.60
2023-09-09T11:32:50.126Z,101405.40
2023-09-09T11:35:18.462Z,101401.00
2023-09-09T11:37:46.564Z,101402.00
2023-09-09T11:40:18.784Z,101402.00
2023-09-09T11:42:53.716Z,101404.40
2023-09-09T11:45:23.937Z,101402.20
2023-09-09T11:47:52.156Z,101404.00
2023-09-09T11:50:20.351Z,101404.80
2023-09-09T11:52:48.380Z,101403.60
2023-09-09T11:55:19.268Z,101399.80
2023-09-09T11:57:57.439Z,101404.20
2023-09-09T12:00:25.807Z,101400.40
2023-09-09T12:02:54.435Z,101400.80
2023-09-09T12:05:33.649Z,101395.00
2023-09-09T12:08:03.510Z,101401.20
2023-09-09T12:10:37.918Z,101395.80
2023-09-09T12:13:07.556Z,101396.00
2023-09-09T12:15:35.849Z,101391.20
2023-09-09T12:18:17.348Z,101387.20
2023-09-09T12:21:08.389Z,101390.00
2023-09-09T12:23:40.205Z,101393.20
2023-09-09T12:26:19.995Z,101396.40
2023-09-09T12:29:13.507Z,101393.60
2023-09-09T12:31:57.334Z,101390.60
2023-09-09T12:34:27.962Z,101388.20
2023-09-09T12:37:00.918Z,101387.60
2023-09-09T12:39:31.736Z,101388.80
2023-09-09T12:42:08.926Z,101388.40
2023-09-09T12:44:52.213Z,101384.80
2023-09-09T12:47:24.916Z,101380.80
2023-09-09T12:49:53.903Z,101377.60
2023-09-09T12:52:22.025Z,101377.40
2023-09-09T12:54:49.953Z,101377.40
2023-09-09T12:57:17.879Z,101377.60
2023-09-09T12:59:45.762Z,101373.80
2023-09-09T13:02:13.691Z,101370.20
2023-09-09T13:04:41.613Z,101368.60
2023-09-09T13:07:09.437Z,101369.80
2023-09-09T13:09:37.375Z,101372.00
2023-09-09T13:12:06.204Z,101371.00
2023-09-09T13:14:34.396Z,101368.60
2023-09-09T13:17:02.463Z,101369.60
2023-09-09T13:19:32.032Z,101367.40
2023-09-09T13:22:02.647Z,101365.60
2023-09-09T13:24:30.529Z,101362.60
2023-09-09T13:26:58.730Z,101361.80
2023-09-09T13:29:26.729Z,101356.60
2023-09-09T13:31:55.662Z,101354.80
2023-09-09T13:34:23.687Z,101357.00
2023-09-09T13:36:51.783Z,101355.20
2023-09-09T13:39:19.846Z,101351.40
2023-09-09T13:41:48.077Z,101346.20
2023-09-09T13:44:16.164Z,101350.80
2023-09-09T13:46:44.223Z,101349.20
2023-09-09T13:49:12.505Z,101347.20
2023-09-09T13:51:40.778Z,101340.00
2023-09-09T13:54:09.249Z,101341.00
2023-09-09T13:56:37.337Z,101334.60
2023-09-09T13:59:05.714Z,101338.20
2023-09-09T14:01:33.682Z,101341.20
2023-09-09T14:04:02.129Z,101340.60
2023-09-09T14:06:30.291Z,101340.00
2023-09-09T14:09:00.870Z,101340.60
2023-09-09T14:11:28.848Z,101339.60
2023-09-09T14:13:57.852Z,101341.00
2023-09-09T14:16:27.654Z,101341.20
2023-09-09T14:18:55.744Z,101340.60
2023-09-09T14:21:24.906Z,101340.20
2023-09-09T14:23:52.954Z,101338.00
2023-09-09T14:26:20.955Z,101338.60
2023-09-09T14:28:48.915Z,101337.00
2023-09-09T14:31:16.960Z,101340.00
2023-09-09T14:33:45.539Z,101337.00
2023-09-09T14:36:13.527Z,101337.00
2023-09-09T14:38:41.430Z,101336.20
2023-09-09T14:41:09.405Z,101333.80
2023-09-09T14:43:37.406Z,101332.80
2023-09-09T14:46:05.792Z,101336.40
2023-09-09T14:48:55.195Z,101334.80
2023-09-09T14:51:23.444Z,101332.60
2023-09-09T14:53:51.776Z,101331.20
2023-09-09T14:56:19.924Z,101333.00
2023-09-09T14:58:48.397Z,101331.00
2023-09-09T15:01:17.177Z,101333.80
2023-09-09T15:03:48.038Z,101334.00
2023-09-09T15:06:16.324Z,101333.00
2023-09-09T15:08:48.325Z,101330.80
2023-09-09T15:11:16.600Z,101329.00
2023-09-09T15:13:46.932Z,101327.00
2023-09-09T15:16:16.906Z,101329.40
2023-09-09T15:18:45.456Z,101318.80
2023-09-09T15:21:14.374Z,101322.80
2023-09-09T15:23:42.915Z,101318.20
2023-09-09T15:26:11.320Z,101322.60
2023-09-09T15:28:39.380Z,101325.60
2023-09-09T15:31:08.232Z,101324.00
2023-09-09T15:33:36.886Z,101325.60
2023-09-09T15:36:05.366Z,101329.20
2023-09-09T15:38:41.168Z,101329.60
2023-09-09T15:41:09.475Z,101329.60
2023-09-09T15:43:40.067Z,101330.20
2023-09-09T15:46:08.545Z,101325.80
2023-09-09T15:48:36.803Z,101331.60
2023-09-09T15:51:06.195Z,101330.40
2023-09-09T15:53:34.531Z,101330.20
2023-09-09T15:56:06.631Z,101326.20
2023-09-09T15:58:34.687Z,101328.40
2023-09-09T16:01:02.999Z,101326.80
2023-09-09T16:03:31.185Z,101330.80
2023-09-09T16:06:06.512Z,101334.80
2023-09-09T16:08:41.372Z,101332.60
2023-09-09T16:11:09.924Z,101332.80
2023-09-09T16:13:40.782Z,101336.60
2023-09-09T16:16:12.180Z,101338.00
2023-09-09T16:18:42.727Z,101339.00
2023-09-09T16:21:13.989Z,101337.60
2023-09-09T16:23:42.075Z,101339.60
2023-09-09T16:26:10.223Z,101339.20
2023-09-09T16:28:41.900Z,101334.80
2023-09-09T16:31:10.882Z,101337.20
2023-09-09T16:33:38.990Z,101335.00
2023-09-09T16:36:07.620Z,101333.60
2023-09-09T16:38:38.756Z,101337.40
2023-09-09T16:41:07.613Z,101337.40
2023-09-09T16:43:39.696Z,101336.40
2023-09-09T16:46:09.160Z,101334.80
2023-09-09T16:48:37.916Z,101332.60
2023-09-09T16:51:07.842Z,101338.00
2023-09-09T16:53:35.791Z,101339.00
2023-09-09T16:56:04.109Z,101338.40
2023-09-09T16:58:32.200Z,101340.80
2023-09-09T17:01:00.223Z,101337.80
2023-09-09T17:03:31.031Z,101345.40
2023-09-09T17:06:01.770Z,101340.80
2023-09-09T17:08:31.192Z,101345.60
2023-09-09T17:10:59.339Z,101347.00
2023-09-09T17:13:27.848Z,101346.60
2023-09-09T17:15:56.223Z,101350.20
2023-09-09T17:18:26.956Z,101356.20
2023-09-09T17:20:57.110Z,101358.60
2023-09-09T17:23:27.487Z,101353.80
2023-09-09T17:26:07.171Z,101358.80
2023-09-09T17:28:36.783Z,101358.60
2023-09-09T17:31:05.969Z,101356.00
2023-09-09T17:33:34.271Z,101361.20
2023-09-09T17:36:02.543Z,101357.80
2023-09-09T17:38:30.978Z,101359.20
2023-09-09T17:41:01.465Z,101353.20
2023-09-09T17:43:29.511Z,101356.00
2023-09-09T17:45:57.583Z,101360.00
2023-09-09T17:48:27.521Z,101361.80
2023-09-09T17:50:55.685Z,101365.40
2023-09-09T17:53:24.630Z,101367.80
2023-09-09T17:55:52.604Z,101361.20
2023-09-09T17:58:20.600Z,101363.20
2023-09-09T18:00:48.725Z,101361.00
2023-09-09T18:03:16.745Z,101359.00
2023-09-09T18:05:44.926Z,101359.60
2023-09-09T18:08:12.834Z,101364.60
2023-09-09T18:10:42.396Z,101364.20
2023-09-09T18:13:10.375Z,101359.60
2023-09-09T18:15:38.549Z,101361.80
2023-09-09T18:18:08.028Z,101360.20
2023-09-09T18:20:35.994Z,101366.00
2023-09-09T18:23:04.295Z,101364.60
2023-09-09T18:25:32.241Z,101367.20
2023-09-09T18:28:00.217Z,101365.00
2023-09-09T18:30:28.339Z,101363.80
2023-09-09T18:32:56.314Z,101364.80
2023-09-09T18:35:24.247Z,101371.60
2023-09-09T18:37:52.250Z,101368.60
2023-09-09T18:40:20.189Z,101362.20
2023-09-09T18:42:48.133Z,101365.20
2023-09-09T18:45:16.290Z,101364.20
2023-09-09T18:47:44.264Z,101368.80
2023-09-09T18:50:12.454Z,101369.00
2023-09-09T18:52:40.525Z,101365.60
2023-09-09T18:55:09.268Z,101362.60
2023-09-09T18:57:37.231Z,101365.40
2023-09-09T19:00:06.551Z,101363.60
2023-09-09T19:02:34.645Z,101367.00
2023-09-09T19:05:02.961Z,101368.20
2023-09-09T19:07:39.924Z,101362.80
2023-09-09T19:10:11.236Z,101361.20
2023-09-09T19:12:39.429Z,101358.20
2023-09-09T19:15:08.366Z,101363.00
2023-09-09T19:17:37.132Z,101363.60
2023-09-09T19:20:07.171Z,101361.40
2023-09-09T19:22:35.027Z,101362.00
2023-09-09T19:25:03.904Z,101360.20
2023-09-09T19:27:32.429Z,101359.40
2023-09-09T19:30:01.082Z,101360.60
2023-09-09T19:32:29.675Z,101350.00
2023-09-09T19:34:57.967Z,101356.40
2023-09-09T19:37:26.328Z,101351.20
2023-09-09T19:39:59.388Z,101360.20
2023-09-09T19:42:29.602Z,101359.00
2023-09-09T19:44:59.251Z,101351.60
2023-09-09T19:47:27.416Z,101358.80
2023-09-09T19:49:55.772Z,101359.40
2023-09-09T19:52:23.889Z,101358.80
2023-09-09T19:54:52.045Z,101358.60
2023-09-09T19:57:20.221Z,101352.80
2023-09-09T19:59:48.257Z,101351.00
2023-09-09T20:02:16.482Z,101348.20
2023-09-09T20:04:44.831Z,101349.60
2023-09-09T20:07:12.942Z,101343.60
2023-09-09T20:10:00.014Z,101345.80
2023-09-09T20:12:28.070Z,101347.00
2023-09-09T20:14:56.191Z,101342.20
2023-09-09T20:17:24.329Z,101337.00
2023-09-09T20:19:52.598Z,101342.60
2023-09-09T20:22:21.644Z,101335.80
2023-09-09T20:24:49.864Z,101336.00
2023-09-09T20:27:18.594Z,101337.40
2023-09-09T20:29:46.461Z,101338.20
2023-09-09T20:32:14.582Z,101334.40
2023-09-09T20:34:43.016Z,101335.20
2023-09-09T20:37:11.092Z,101337.00
2023-09-09T20:39:40.028Z,101336.00
2023-09-09T20:42:08.097Z,101334.60
2023-09-09T20:44:36.421Z,101336.00
2023-09-09T20:47:04.788Z,101327.80
2023-09-09T20:49:33.161Z,101326.40
2023-09-09T20:52:01.130Z,101328.20
2023-09-09T20:54:29.151Z,101327.20
2023-09-09T20:56:57.263Z,101322.20
2023-09-09T20:59:25.161Z,101320.60
2023-09-09T21:01:53.083Z,101316.00
2023-09-09T21:04:21.454Z,101321.00
2023-09-09T21:06:49.735Z,101314.60
2023-09-09T21:09:18.234Z,101314.60
2023-09-09T21:11:46.036Z,101316.80
2023-09-09T21:14:14.009Z,101312.40
2023-09-09T21:16:42.098Z,101312.00
2023-09-09T21:19:09.986Z,101312.60
2023-09-09T21:21:37.845Z,101314.20
2023-09-09T21:24:08.351Z,101310.20
2023-09-09T21:26:36.615Z,101309.20
2023-09-09T21:29:04.615Z,101307.80
2023-09-09T21:31:32.744Z,101313.60
2023-09-09T21:34:01.167Z,101309.40
2023-09-09T21:36:29.209Z,101309.40
2023-09-09T21:38:57.389Z,101312.80
2023-09-09T21:41:25.279Z,101306.60
2023-09-09T21:43:53.234Z,101305.20
2023-09-09T21:46:21.878Z,101304.40
2023-09-09T21:48:50.628Z,101306.40
2023-09-09T21:51:18.841Z,101303.40
2023-09-09T21:53:46.897Z,101299.20
2023-09-09T21:56:14.998Z,101300.60
2023-09-09T21:58:43.129Z,101299.00
2023-09-09T22:01:13.931Z,101298.60
2023-09-09T22:03:45.884Z,101294.40
2023-09-09T22:06:14.208Z,101292.60
2023-09-09T22:08:42.196Z,101290.40
2023-09-09T22:11:10.361Z,101287.40
2023-09-09T22:13:39.059Z,101285.80
2023-09-09T22:16:08.935Z,101289.00
2023-09-09T22:18:38.414Z,101289.60
2023-09-09T22:21:09.676Z,101286.60
2023-09-09T22:23:38.637Z,101287.20
2023-09-09T22:26:28.659Z,101287.00
2023-09-09T22:28:57.639Z,101288.40
2023-09-09T22:31:26.081Z,101291.80
2023-09-09T22:33:55.123Z,101286.00
2023-09-09T22:36:23.011Z,101287.00
2023-09-09T22:38:52.733Z,101280.80
2023-09-09T22:41:20.656Z,101282.60
2023-09-09T22:43:48.541Z,101275.80
2023-09-09T22:46:16.710Z,101275.80
2023-09-09T22:48:44.596Z,101275.60
2023-09-09T22:51:12.800Z,101276.00
2023-09-09T22:53:40.892Z,101270.80
2023-09-09T22:56:08.863Z,101272.40
2023-09-09T22:58:37.079Z,101268.80
2023-09-09T23:01:05.955Z,101268.80
2023-09-09T23:03:34.399Z,101268.80
2023-09-09T23:06:05.185Z,101266.60
2023-09-09T23:08:34.145Z,101267.60
2023-09-09T23:11:12.330Z,101264.00
2023-09-09T23:13:42.599Z,101268.20
2023-09-09T23:16:10.858Z,101261.00
2023-09-09T23:18:39.798Z,101263.60
2023-09-09T23:21:08.124Z,101260.00
2023-09-09T23:23:37.699Z,101256.60
2023-09-09T23:26:05.784Z,101260.00
2023-09-09T23:28:33.647Z,101259.40
2023-09-09T23:31:03.459Z,101260.60
2023-09-09T23:33:32.683Z,101260.80
2023-09-09T23:36:02.567Z,101261.80
2023-09-09T23:38:31.982Z,101261.40
2023-09-09T23:41:00.803Z,101257.20
2023-09-09T23:43:28.872Z,101256.00
2023-09-09T23:45:57.045Z,101251.00
2023-09-09T23:48:26.158Z,101255.40
2023-09-09T23:50:54.027Z,101259.00
2023-09-09T23:53:21.873Z,101260.80
2023-09-09T23:55:50.928Z,101255.40
2023-09-09T23:58:20.573Z,101248.20
